Time;durP1;ratioP1;P1;durP2;ratioP2;P2;SDS_P1;SDS_P2;PMS_P1;PMS_P2;Temp;Humidity;BMP_temperature;BMP_pressure;BME280_temperature;BME280_humidity;BME280_pressure;Samples;Min_cycle;Max_cycle;Signal;HPM_P1;HPM_P2
2023/05/18 03:57:47;;;;;;;2.30;2.10;;;;;;;10.43;100.00;100585.63;6578601;27;20079;-83
2023/05/18 04:00:51;;;;;;;5.43;1.70;;;;;;;10.50;100.00;100577.69;6558517;27;34257;-83
2023/05/18 04:03:55;;;;;;;2.15;1.95;;;;;;;10.46;100.00;100582.59;6577686;27;34228;-83
2023/05/18 04:07:01;;;;;;;2.10;1.90;;;;;;;10.52;100.00;100583.75;6577784;27;34253;-83
2023/05/18 04:10:06;;;;;;;2.10;1.90;;;;;;;10.46;100.00;100581.75;6578223;27;33769;-83
2023/05/18 04:13:09;;;;;;;2.83;2.53;;;;;;;10.51;100.00;100582.09;6558270;27;34407;-83
2023/05/18 04:16:13;;;;;;;1.83;1.62;;;;;;;10.52;100.00;100584.59;6576907;27;33482;-83
2023/05/18 04:19:15;;;;;;;5.18;2.20;;;;;;;10.52;100.00;100594.53;6576822;27;33844;-83
2023/05/18 04:22:20;;;;;;;3.67;2.28;;;;;;;10.53;100.00;100591.69;6559478;27;33453;-83
2023/05/18 04:25:27;;;;;;;2.58;2.22;;;;;;;10.44;100.00;100596.25;6578284;27;34528;-83
2023/05/18 04:28:31;;;;;;;2.65;2.45;;;;;;;10.48;100.00;100601.28;6559998;27;34643;-83
2023/05/18 04:31:34;;;;;;;3.50;2.30;;;;;;;10.43;100.00;100601.78;6560268;27;34666;-83
2023/05/18 04:34:38;;;;;;;4.07;2.37;;;;;;;10.43;100.00;100607.16;6558835;27;34231;-83
2023/05/18 04:37:41;;;;;;;3.62;2.53;;;;;;;10.43;100.00;100601.78;6558336;27;33748;-83
2023/05/18 04:40:45;;;;;;;4.40;2.50;;;;;;;10.43;100.00;100609.84;6577255;27;34393;-83
2023/05/18 04:43:49;;;;;;;4.12;2.75;;;;;;;10.49;100.00;100608.31;6576119;27;34127;-83
2023/05/18 04:46:53;;;;;;;3.58;2.97;;;;;;;10.50;100.00;100610.88;6576289;27;34077;-83
2023/05/18 04:49:56;;;;;;;3.03;2.62;;;;;;;10.59;100.00;100609.81;6576212;27;35417;-83
2023/05/18 04:53:00;;;;;;;3.62;2.67;;;;;;;10.60;100.00;100608.81;6559909;27;33466;-83
2023/05/18 04:56:04;;;;;;;3.62;2.67;;;;;;;10.66;100.00;100610.81;6576731;27;34557;-83
2023/05/18 04:59:08;;;;;;;4.82;3.30;;;;;;;10.72;100.00;100611.13;6561005;27;35351;-82
2023/05/18 05:02:10;;;;;;;4.50;3.10;;;;;;;10.75;100.00;100617.00;6578065;27;34464;-83
2023/05/18 05:05:14;;;;;;;5.18;3.28;;;;;;;10.75;100.00;100617.00;6557918;27;33732;-83
2023/05/18 05:08:16;;;;;;;3.92;3.42;;;;;;;10.80;100.00;100613.81;6558026;27;33708;-83
2023/05/18 05:11:20;;;;;;;4.10;3.03;;;;;;;10.74;100.00;100622.59;6560360;27;35036;-83
2023/05/18 05:14:23;;;;;;;7.28;3.75;;;;;;;10.73;100.00;100623.56;6564985;27;34549;-83
2023/05/18 05:17:26;;;;;;;3.67;3.12;;;;;;;10.74;100.00;100622.59;6558504;27;33423;-83
2023/05/18 05:20:28;;;;;;;4.85;3.20;;;;;;;10.69;100.00;100623.09;6540069;27;33742;-83
2023/05/18 05:23:33;;;;;;;4.10;3.70;;;;;;;10.71;100.00;100623.75;6540643;27;33859;-83
2023/05/18 05:26:35;;;;;;;3.87;3.35;;;;;;;10.72;100.00;100632.69;6539779;27;34596;-83
2023/05/18 05:29:39;;;;;;;5.25;3.92;;;;;;;10.70;100.00;100632.00;6578888;27;34538;-83
2023/05/18 05:32:42;;;;;;;5.57;3.65;;;;;;;10.71;100.00;100637.22;6559476;27;34015;-83
2023/05/18 05:35:45;;;;;;;3.65;3.20;;;;;;;10.71;100.00;100634.53;6566028;27;34022;-83
2023/05/18 05:38:48;;;;;;;5.62;4.10;;;;;;;10.66;100.00;100629.66;6550430;27;35367;-83
2023/05/18 05:41:51;;;;;;;5.37;3.55;;;;;;;10.78;100.00;100635.50;6578859;27;34849;-87
2023/05/18 05:44:54;;;;;;;3.92;3.50;;;;;;;10.75;100.00;100643.09;6542102;27;34361;-87
2023/05/18 05:47:58;;;;;;;4.72;3.62;;;;;;;10.79;100.00;100652.50;6541911;27;34862;-87
2023/05/18 05:51:01;;;;;;;7.18;3.70;;;;;;;10.82;100.00;100649.47;6559166;27;33895;-84
2023/05/18 05:54:05;;;;;;;4.00;3.45;;;;;;;10.81;100.00;100648.62;6559571;27;33765;-83
2023/05/18 05:57:10;;;;;;;5.80;3.97;;;;;;;10.84;100.00;100648.28;6578338;27;35882;-83
2023/05/18 06:00:13;;;;;;;4.60;3.87;;;;;;;10.91;100.00;100651.16;6578207;27;33620;-83
2023/05/18 06:03:22;;;;;;;8.05;4.10;;;;;;;10.96;100.00;100647.91;6559893;27;34472;-83
2023/05/18 06:06:26;;;;;;;6.20;3.80;;;;;;;10.97;100.00;100657.66;6558546;27;34628;-83
2023/05/18 06:09:29;;;;;;;5.85;3.90;;;;;;;10.98;100.00;100652.12;6558531;27;33818;-83
2023/05/18 06:12:32;;;;;;;4.65;3.60;;;;;;;10.96;100.00;100661.38;6559437;27;34280;-83
2023/05/18 06:15:35;;;;;;;4.20;3.58;;;;;;;11.03;100.00;100663.22;6578558;27;34002;-83
2023/05/18 06:18:38;;;;;;;3.40;3.08;;;;;;;10.98;100.00;100668.28;6559620;27;33526;-83
2023/05/18 06:21:42;;;;;;;5.53;3.65;;;;;;;11.03;100.00;100665.09;6541545;27;33839;-83
2023/05/18 06:24:47;;;;;;;4.72;3.35;;;;;;;11.00;100.00;100673.50;6543033;27;33570;-83
2023/05/18 06:27:51;;;;;;;5.22;3.40;;;;;;;10.97;100.00;100674.69;6545387;27;33876;-83
2023/05/18 06:30:54;;;;;;;4.47;3.20;;;;;;;11.01;100.00;100676.00;6561774;27;33878;-82
2023/05/18 06:33:59;;;;;;;4.87;3.33;;;;;;;10.97;100.00;100679.22;6578990;27;34724;-83
2023/05/18 06:37:02;;;;;;;6.95;3.20;;;;;;;11.03;100.00;100684.78;6541580;27;33669;-83
2023/05/18 06:40:08;;;;;;;5.00;2.55;;;;;;;11.05;100.00;100687.28;6558445;27;33862;-83
2023/05/18 06:43:11;;;;;;;2.58;2.00;;;;;;;11.00;100.00;100686.97;6578524;27;34943;-83
2023/05/18 06:46:23;;;;;;;3.62;1.35;;;;;;;10.98;100.00;100687.13;6559173;27;34075;-83
2023/05/18 06:49:27;;;;;;;1.60;1.37;;;;;;;10.98;100.00;100699.78;6578271;27;34064;-82
2023/05/18 06:52:30;;;;;;;1.27;0.82;;;;;;;10.99;100.00;100698.75;6540856;27;34727;-82
2023/05/18 06:55:33;;;;;;;0.82;0.82;;;;;;;10.97;100.00;100703.47;6541516;27;33644;-83
2023/05/18 06:58:37;;;;;;;1.20;1.10;;;;;;;10.91;100.00;100705.03;6541074;27;33839;-82
2023/05/18 07:01:40;;;;;;;0.90;0.90;;;;;;;10.91;100.00;100705.03;6578172;27;33878;-82
2023/05/18 07:04:43;;;;;;;1.90;1.30;;;;;;;10.92;100.00;100700.47;6559085;27;33868;-82
2023/05/18 07:07:46;;;;;;;1.30;1.20;;;;;;;11.00;100.00;100706.69;6541199;27;34322;-83
2023/05/18 07:10:50;;;;;;;1.12;1.02;;;;;;;11.04;100.00;100712.56;6578614;27;33574;-82
2023/05/18 07:13:53;;;;;;;1.08;1.00;;;;;;;11.01;100.00;100705.66;6578817;27;34894;-83
2023/05/18 07:16:56;;;;;;;1.30;1.10;;;;;;;11.04;100.00;100720.62;6540208;27;33744;-83
2023/05/18 07:19:59;;;;;;;2.33;0.93;;;;;;;11.02;100.00;100709.19;6558469;27;34613;-82
2023/05/18 07:23:01;;;;;;;1.23;1.10;;;;;;;11.12;100.00;100712.53;6558322;27;34788;-82
2023/05/18 07:26:07;;;;;;;1.25;1.15;;;;;;;11.15;100.00;100720.28;6540524;27;34723;-82
2023/05/18 07:29:09;;;;;;;1.45;1.10;;;;;;;11.18;100.00;100719.09;6558385;27;33739;-83
2023/05/18 07:32:12;;;;;;;1.05;0.95;;;;;;;11.23;100.00;100722.09;6539541;27;33593;-82
2023/05/18 07:35:18;;;;;;;1.08;1.00;;;;;;;11.30;100.00;100731.16;6540155;27;34465;-83
2023/05/18 07:38:23;;;;;;;1.92;0.82;;;;;;;11.30;100.00;100731.16;6577581;27;33477;-85
2023/05/18 07:41:30;;;;;;;1.00;1.00;;;;;;;11.29;100.00;100738.41;6539044;27;34533;-86
2023/05/18 07:44:33;;;;;;;0.98;0.98;;;;;;;11.31;100.00;100738.22;6558239;27;33993;-87
2023/05/18 07:47:36;;;;;;;0.80;0.80;;;;;;;11.43;100.00;100736.84;6558833;27;33693;-83
2023/05/18 07:50:40;;;;;;;3.65;0.93;;;;;;;11.48;100.00;100739.00;6556832;27;34020;-83
2023/05/18 07:53:44;;;;;;;1.48;1.15;;;;;;;11.51;100.00;100741.38;6557685;27;33603;-81
2023/05/18 07:56:47;;;;;;;1.30;1.10;;;;;;;11.57;100.00;100746.88;6561029;27;33680;-82
2023/05/18 07:59:51;;;;;;;1.17;0.90;;;;;;;11.63;100.00;100750.75;6560328;27;33928;-83
2023/05/18 08:02:54;;;;;;;1.08;0.98;;;;;;;11.70;100.00;100738.25;6585959;27;34799;-82
2023/05/18 08:05:57;;;;;;;1.10;1.00;;;;;;;11.74;100.00;100746.81;6558694;27;34497;-81
2023/05/18 08:09:00;;;;;;;0.85;0.80;;;;;;;11.91;100.00;100755.72;6576485;27;34504;-83
2023/05/18 08:12:03;;;;;;;0.80;0.80;;;;;;;11.85;100.00;100751.84;6539733;27;34013;-83
2023/05/18 08:15:07;;;;;;;1.55;0.85;;;;;;;11.85;100.00;100751.00;6557958;27;33544;-85
2023/05/18 08:18:10;;;;;;;1.10;1.00;;;;;;;11.97;100.00;100757.69;6557789;27;35624;-83
2023/05/18 08:21:13;;;;;;;1.48;0.80;;;;;;;12.11;100.00;100756.06;6541104;27;34473;-84
2023/05/18 08:24:16;;;;;;;0.98;0.88;;;;;;;12.17;100.00;100752.69;6560536;27;34987;-83
2023/05/18 08:27:18;;;;;;;1.35;1.02;;;;;;;12.31;100.00;100754.56;6559461;27;34024;-84
2023/05/18 08:30:21;;;;;;;1.10;1.00;;;;;;;12.22;100.00;100758.34;6557420;27;34317;-82
2023/05/18 08:33:24;;;;;;;1.92;0.98;;;;;;;12.36;100.00;100764.84;6558450;27;33889;-81
2023/05/18 08:36:27;;;;;;;1.25;1.10;;;;;;;12.45;100.00;100766.47;6555581;27;34030;-82
2023/05/18 08:39:31;;;;;;;1.02;0.90;;;;;;;12.45;100.00;100763.75;6539972;27;34242;-82
2023/05/18 08:43:00;;;;;;;1.08;1.00;;;;;;;12.56;100.00;100763.34;6577720;27;33977;-82
2023/05/18 08:46:15;;;;;;;0.88;0.80;;;;;;;12.65;100.00;100761.41;6572877;27;35032;-82
2023/05/18 08:49:21;;;;;;;0.77;0.77;;;;;;;12.74;100.00;100763.03;6577148;27;33837;-82
2023/05/18 08:52:27;;;;;;;1.00;1.00;;;;;;;12.77;100.00;100767.22;6540633;27;33986;-82
2023/05/18 08:55:35;;;;;;;1.50;0.82;;;;;;;12.63;100.00;100771.56;6557644;27;34737;-82
2023/05/18 08:58:47;;;;;;;1.48;0.80;;;;;;;12.63;100.00;100761.59;6576235;27;34782;-82
2023/05/18 09:01:53;;;;;;;1.10;1.00;;;;;;;12.73;100.00;100765.91;6577276;27;33700;-82
2023/05/18 09:04:57;;;;;;;1.33;1.23;;;;;;;12.86;100.00;100764.25;6557361;27;33874;-82
2023/05/18 09:08:02;;;;;;;1.10;0.80;;;;;;;13.16;100.00;100764.28;6577464;27;33904;-82
2023/05/18 09:11:05;;;;;;;1.05;0.95;;;;;;;13.11;100.00;100767.56;6558150;27;33945;-86
2023/05/18 09:14:09;;;;;;;0.70;0.70;;;;;;;13.15;100.00;100755.34;6539865;27;33549;-88
2023/05/18 09:17:12;;;;;;;0.68;0.68;;;;;;;13.24;100.00;100760.69;6575543;27;34006;-87
2023/05/18 09:20:16;;;;;;;0.73;0.73;;;;;;;13.54;100.00;100756.13;6538851;27;33733;-85
2023/05/18 09:23:18;;;;;;;0.85;0.85;;;;;;;13.83;100.00;100750.69;6556156;27;33489;-83
2023/05/18 09:26:21;;;;;;;2.80;0.88;;;;;;;14.27;100.00;100757.84;6555885;27;34095;-83
2023/05/18 09:29:24;;;;;;;0.90;0.90;;;;;;;14.53;100.00;100751.00;6556734;27;34413;-83
2023/05/18 09:32:28;;;;;;;0.60;0.60;;;;;;;14.73;100.00;100759.31;6522469;27;33374;-83
2023/05/18 09:35:31;;;;;;;4.37;0.95;;;;;;;14.66;100.00;100767.41;6575748;27;33626;-83
2023/05/18 09:38:42;;;;;;;1.00;0.90;;;;;;;14.63;100.00;100759.66;6539260;27;34545;-82
2023/05/18 09:41:45;;;;;;;0.82;0.80;;;;;;;14.86;100.00;100756.72;6575342;27;33829;-82
2023/05/18 09:44:48;;;;;;;1.17;1.05;;;;;;;14.77;100.00;100757.03;6557119;27;33533;-82
2023/05/18 09:47:52;;;;;;;1.17;1.12;;;;;;;14.76;100.00;100764.34;6538802;27;33542;-82
2023/05/18 09:50:58;;;;;;;2.10;0.80;;;;;;;14.75;100.00;100765.38;6557830;27;33701;-82
2023/05/18 09:54:03;;;;;;;1.12;1.00;;;;;;;14.41;100.00;100763.38;6576577;27;35058;-82
2023/05/18 09:57:07;;;;;;;1.02;0.93;;;;;;;14.08;100.00;100769.28;6576229;27;33907;-82
2023/05/18 10:00:15;;;;;;;1.10;1.00;;;;;;;14.43;100.00;100762.16;6557965;27;33743;-82
2023/05/18 10:03:23;;;;;;;0.98;0.93;;;;;;;14.73;100.00;100762.84;6577358;27;33896;-82
2023/05/18 10:06:27;;;;;;;1.40;0.90;;;;;;;14.76;100.00;100766.22;6557871;27;34209;-82
2023/05/18 10:09:30;;;;;;;1.00;1.00;;;;;;;14.83;100.00;100767.97;6558031;27;33528;-82
2023/05/18 10:12:33;;;;;;;1.17;1.08;;;;;;;14.98;100.00;100764.31;6539422;27;34354;-82
2023/05/18 10:15:36;;;;;;;0.90;0.90;;;;;;;14.91;100.00;100766.97;6558155;27;33512;-82
2023/05/18 10:18:39;;;;;;;0.93;0.80;;;;;;;15.05;100.00;100771.44;6548764;27;34209;-82
2023/05/18 10:21:43;;;;;;;1.00;1.00;;;;;;;14.79;100.00;100761.25;6576178;27;34564;-82
2023/05/18 10:24:50;;;;;;;1.75;1.00;;;;;;;14.83;100.00;100757.12;6541990;27;33681;-82
2023/05/18 10:28:00;;;;;;;1.37;1.20;;;;;;;14.96;100.00;100762.63;6576866;27;35367;-82
2023/05/18 10:31:05;;;;;;;1.23;1.12;;;;;;;14.79;100.00;100763.13;6577939;27;34283;-82
2023/05/18 10:34:09;;;;;;;1.10;1.10;;;;;;;14.76;100.00;100760.81;6577733;27;34175;-82
2023/05/18 10:37:14;;;;;;;0.93;0.90;;;;;;;14.80;100.00;100762.94;6581328;27;33465;-82
2023/05/18 10:40:18;;;;;;;0.80;0.80;;;;;;;14.93;100.00;100767.62;6572214;27;35165;-82
2023/05/18 10:43:27;;;;;;;1.17;1.08;;;;;;;14.92;100.00;100769.50;6577754;27;34059;-82
2023/05/18 10:46:32;;;;;;;1.70;1.60;;;;;;;15.39;100.00;100777.94;6577493;27;34651;-82
2023/05/18 10:49:36;;;;;;;0.90;0.90;;;;;;;15.51;100.00;100765.50;6576734;27;34206;-82
2023/05/18 10:52:40;;;;;;;0.90;0.90;;;;;;;15.67;100.00;100774.31;6557490;27;33828;-82
2023/05/18 10:55:43;;;;;;;0.80;0.80;;;;;;;15.63;100.00;100766.59;6576666;27;33780;-86
2023/05/18 10:58:46;;;;;;;2.92;1.10;;;;;;;15.75;100.00;100766.88;6558149;27;33948;-86
2023/05/18 11:01:52;;;;;;;1.08;0.98;;;;;;;16.14;100.00;100768.06;6539918;27;34205;-87
2023/05/18 11:04:55;;;;;;;0.88;0.88;;;;;;;16.01;100.00;100766.16;6576956;27;33598;-82
2023/05/18 11:08:04;;;;;;;0.90;0.80;;;;;;;15.50;100.00;100771.09;6557428;27;33891;-82
2023/05/18 11:11:07;;;;;;;2.43;0.93;;;;;;;15.42;100.00;100770.25;6577018;27;33988;-82
2023/05/18 11:14:11;;;;;;;2.15;1.20;;;;;;;15.16;100.00;100773.63;6558561;27;34260;-82
2023/05/18 11:17:21;;;;;;;1.60;1.00;;;;;;;15.15;100.00;100769.25;6557936;27;33559;-82
2023/05/18 11:20:24;;;;;;;0.60;0.60;;;;;;;14.98;100.00;100775.16;6555423;27;33906;-82
2023/05/18 11:23:32;;;;;;;1.15;1.02;;;;;;;14.89;100.00;100778.03;6557594;27;33816;-82
2023/05/18 11:26:45;;;;;;;1.98;1.08;;;;;;;14.68;100.00;100781.59;6576894;27;33725;-83
2023/05/18 11:29:48;;;;;;;0.98;0.98;;;;;;;14.54;100.00;100774.38;6573467;27;34010;-82
2023/05/18 11:33:19;;;;;;;1.27;1.10;;;;;;;14.50;100.00;100775.75;6576973;27;34204;-82
2023/05/18 11:36:23;;;;;;;1.30;1.02;;;;;;;14.56;100.00;100785.84;6577699;27;34634;-82
2023/05/18 11:39:26;;;;;;;1.55;0.95;;;;;;;14.58;100.00;100782.94;6539734;27;34110;-82
2023/05/18 11:42:33;;;;;;;1.17;1.08;;;;;;;14.49;100.00;100784.91;6557332;27;33977;-82
2023/05/18 11:45:52;;;;;;;2.08;1.10;;;;;;;14.47;100.00;100792.41;6557132;27;33840;-82
2023/05/18 11:48:55;;;;;;;2.40;1.20;;;;;;;14.51;100.00;100794.56;6575476;27;33662;-82
2023/05/18 11:52:17;;;;;;;0.90;0.90;;;;;;;14.48;100.00;100791.38;6538424;27;33773;-82
2023/05/18 11:55:21;;;;;;;1.30;1.00;;;;;;;14.38;100.00;100790.84;6576798;27;35423;-82
2023/05/18 11:58:24;;;;;;;1.55;1.45;;;;;;;14.36;100.00;100796.47;6577383;27;34209;-82
2023/05/18 12:01:28;;;;;;;1.50;1.40;;;;;;;14.34;100.00;100794.97;6540583;27;34117;-86
2023/05/18 12:04:33;;;;;;;1.80;1.40;;;;;;;14.26;100.00;100796.75;6540546;27;33696;-86
2023/05/18 12:07:37;;;;;;;1.52;1.20;;;;;;;14.08;100.00;100788.25;6577281;27;34640;-86
2023/05/18 12:10:41;;;;;;;1.08;1.05;;;;;;;14.02;100.00;100797.13;6577073;27;33652;-82
2023/05/18 12:13:45;;;;;;;1.48;1.00;;;;;;;14.09;100.00;100792.59;6558043;27;33917;-82
2023/05/18 12:16:48;;;;;;;2.28;1.08;;;;;;;13.94;100.00;100800.78;6540327;27;34490;-82
2023/05/18 12:19:51;;;;;;;1.20;1.17;;;;;;;14.10;100.00;100793.44;6540536;27;34709;-82
2023/05/18 12:22:55;;;;;;;1.25;1.15;;;;;;;14.15;100.00;100801.84;6576942;27;33932;-82
2023/05/18 12:25:57;;;;;;;1.67;1.45;;;;;;;14.26;100.00;100796.75;6573450;27;34516;-82
2023/05/18 12:29:01;;;;;;;1.50;1.40;;;;;;;14.29;100.00;100798.25;6557408;27;34643;-82
2023/05/18 12:32:09;;;;;;;2.40;1.70;;;;;;;14.38;100.00;100796.25;6575478;27;34964;-82
2023/05/18 12:35:12;;;;;;;1.50;1.40;;;;;;;14.43;100.00;100791.12;6576628;27;33858;-82
2023/05/18 12:38:17;;;;;;;0.95;0.95;;;;;;;14.73;100.00;100783.72;6557399;27;33942;-82
2023/05/18 12:41:25;;;;;;;1.35;1.20;;;;;;;14.95;100.00;100795.38;6582198;27;34124;-82
2023/05/18 12:44:28;;;;;;;0.98;0.98;;;;;;;15.25;100.00;100795.19;6585192;27;35455;-82
2023/05/18 12:47:32;;;;;;;0.80;0.80;;;;;;;15.34;100.00;100788.56;6558748;27;35050;-82
2023/05/18 12:50:37;;;;;;;1.17;1.08;;;;;;;15.38;100.00;100790.66;6578686;27;34077;-82
2023/05/18 12:53:41;;;;;;;0.93;0.93;;;;;;;15.49;100.00;100789.25;6577062;27;33552;-82
2023/05/18 12:56:59;;;;;;;1.35;1.25;;;;;;;15.45;100.00;100789.87;6539310;27;34099;-82
2023/05/18 13:00:09;;;;;;;0.85;0.85;;;;;;;15.35;100.00;100788.34;6558873;27;35067;-82
2023/05/18 13:03:17;;;;;;;1.40;1.10;;;;;;;15.20;100.00;100790.34;6575700;27;34014;-82
2023/05/18 13:06:20;;;;;;;1.58;1.20;;;;;;;15.43;100.00;100795.50;6575314;27;34536;-82
2023/05/18 13:09:22;;;;;;;1.02;1.00;;;;;;;15.47;100.00;100790.50;6576014;27;33584;-82
2023/05/18 13:12:47;;;;;;;0.90;0.70;;;;;;;15.27;100.00;100795.78;6575955;27;34657;-82
2023/05/18 13:15:49;;;;;;;1.60;0.85;;;;;;;15.25;100.00;100790.59;6577948;27;33887;-82
2023/05/18 13:18:58;;;;;;;2.47;1.05;;;;;;;15.30;100.00;100792.72;6588058;27;33670;-82
2023/05/18 13:22:01;;;;;;;2.03;1.20;;;;;;;15.33;100.00;100789.59;6590070;27;34365;-82
2023/05/18 13:25:07;;;;;;;4.75;1.25;;;;;;;15.14;100.00;100791.12;6575641;27;34357;-82
2023/05/18 13:28:12;;;;;;;1.35;1.25;;;;;;;14.96;100.00;100783.47;6557763;27;34732;-86
2023/05/18 13:31:15;;;;;;;2.40;1.33;;;;;;;14.93;100.00;100789.31;6557051;27;33591;-86
2023/05/18 13:34:18;;;;;;;1.80;0.95;;;;;;;14.81;100.00;100791.72;6575685;27;33504;-86
2023/05/18 13:37:21;;;;;;;3.53;1.00;;;;;;;14.72;100.00;100796.44;6551995;27;34315;-82
2023/05/18 13:40:24;;;;;;;1.30;1.20;;;;;;;14.65;100.00;100795.50;6559577;27;34525;-82
2023/05/18 13:43:27;;;;;;;8.43;1.20;;;;;;;14.64;100.00;100801.97;6576219;27;34457;-82
2023/05/18 13:46:30;;;;;;;0.90;0.90;;;;;;;14.56;100.00;100804.81;6557111;27;33647;-82
2023/05/18 13:49:33;;;;;;;1.23;1.12;;;;;;;14.65;100.00;100800.09;6576981;27;33947;-82
2023/05/18 13:52:36;;;;;;;1.20;1.10;;;;;;;14.62;100.00;100793.19;6558264;27;34874;-82
2023/05/18 13:55:40;;;;;;;1.90;1.05;;;;;;;14.88;100.00;100795.31;6581722;27;34027;-82
2023/05/18 13:58:43;;;;;;;1.30;1.20;;;;;;;15.11;100.00;100800.50;6586504;27;33881;-83
2023/05/18 14:01:46;;;;;;;1.90;1.35;;;;;;;15.33;100.00;100805.88;6588816;27;33800;-83
2023/05/18 14:04:50;;;;;;;1.40;1.30;;;;;;;15.25;100.00;100798.72;6587612;27;34089;-82
2023/05/18 14:07:53;;;;;;;1.17;1.00;;;;;;;15.15;100.00;100806.34;6550963;27;34559;-82
2023/05/18 14:10:56;;;;;;;1.92;1.12;;;;;;;15.11;100.00;100807.78;6588461;27;33913;-83
2023/05/18 14:13:59;;;;;;;1.30;1.20;;;;;;;15.05;100.00;100804.00;6587830;27;34174;-82
2023/05/18 14:17:03;;;;;;;1.67;1.10;;;;;;;15.08;100.00;100808.19;6569100;27;33472;-82
2023/05/18 14:20:06;;;;;;;1.10;1.10;;;;;;;14.95;100.00;100808.94;6606814;27;32451;-82
2023/05/18 14:23:09;;;;;;;1.23;1.10;;;;;;;14.85;100.00;100811.13;6567442;27;33660;-82
2023/05/18 14:26:12;;;;;;;1.42;1.20;;;;;;;15.02;100.00;100814.41;6567382;27;33837;-83
2023/05/18 14:29:15;;;;;;;0.93;0.93;;;;;;;14.84;100.00;100807.59;6587674;27;34922;-83
2023/05/18 14:32:21;;;;;;;2.87;1.35;;;;;;;14.86;100.00;100815.50;6597304;27;35048;-83
2023/05/18 14:35:25;;;;;;;1.45;1.20;;;;;;;14.77;100.00;100814.84;6573004;27;34053;-82
2023/05/18 14:38:27;;;;;;;1.50;1.30;;;;;;;14.74;100.00;100810.63;6605328;27;33854;-82
2023/05/18 14:41:30;;;;;;;1.40;1.10;;;;;;;14.61;100.00;100818.62;6585897;27;34007;-83
2023/05/18 14:44:34;;;;;;;4.65;1.60;;;;;;;14.48;100.00;100819.31;6575140;27;284398;-82
2023/05/18 14:47:37;;;;;;;1.30;1.20;;;;;;;14.44;100.00;100817.16;6585851;27;33975;-82
2023/05/18 14:50:39;;;;;;;1.77;1.08;;;;;;;14.49;100.00;100818.25;6585664;27;34078;-83
2023/05/18 14:53:43;;;;;;;1.33;1.20;;;;;;;14.43;100.00;100821.75;6568000;27;33584;-83
2023/05/18 14:56:45;;;;;;;1.40;1.30;;;;;;;14.35;100.00;100823.72;6585888;27;34046;-83
2023/05/18 14:59:48;;;;;;;2.60;1.05;;;;;;;14.32;100.00;100826.81;6585903;27;33808;-82
2023/05/18 15:02:52;;;;;;;1.35;1.25;;;;;;;14.31;100.00;100827.88;6570443;27;34185;-83
2023/05/18 15:05:55;;;;;;;1.30;1.20;;;;;;;14.33;100.00;100832.03;6601250;26;34530;-83
2023/05/18 15:08:58;;;;;;;1.20;1.10;;;;;;;14.29;100.00;100828.03;6620665;27;34104;-83
2023/05/18 15:12:01;;;;;;;1.48;1.23;;;;;;;14.31;100.00;100826.00;6585762;27;34576;-83
2023/05/18 15:15:05;;;;;;;1.23;1.17;;;;;;;14.14;100.00;100838.09;6605022;27;33964;-82
2023/05/18 15:18:08;;;;;;;1.30;1.20;;;;;;;14.15;100.00;100826.22;6568127;27;35338;-83
2023/05/18 15:21:11;;;;;;;5.25;1.20;;;;;;;14.29;100.00;100828.03;6606919;27;34395;-83
2023/05/18 15:24:14;;;;;;;2.12;0.90;;;;;;;14.29;100.00;100828.03;6586012;27;34631;-82
2023/05/18 15:27:17;;;;;;;1.52;1.10;;;;;;;14.26;100.00;100821.13;6567867;27;33780;-82
2023/05/18 15:30:20;;;;;;;1.40;1.30;;;;;;;14.39;100.00;100825.03;6585838;27;34272;-82
2023/05/18 15:33:23;;;;;;;1.30;1.20;;;;;;;14.41;100.00;100831.09;6586868;27;33557;-83
2023/05/18 15:36:26;;;;;;;1.42;1.00;;;;;;;14.50;100.00;100833.47;6586478;27;33622;-83
2023/05/18 15:39:30;;;;;;;1.23;1.08;;;;;;;14.51;100.00;100835.22;6586154;27;33822;-82
2023/05/18 15:42:33;;;;;;;0.98;0.95;;;;;;;14.53;100.00;100835.00;6586194;27;33824;-83
2023/05/18 15:45:36;;;;;;;1.17;1.08;;;;;;;14.41;100.00;100831.94;6585843;27;34833;-83
2023/05/18 15:48:39;;;;;;;3.10;1.10;;;;;;;14.28;100.00;100827.22;6567734;27;34031;-87
2023/05/18 15:51:42;;;;;;;2.85;1.27;;;;;;;14.31;100.00;100830.56;6567671;27;33788;-86
2023/05/18 15:54:45;;;;;;;3.12;1.30;;;;;;;14.37;100.00;100821.69;6585660;27;34572;-87
2023/05/18 15:57:47;;;;;;;2.00;1.02;;;;;;;14.49;100.00;100834.53;6604921;27;34600;-87
2023/05/18 16:00:50;;;;;;;1.75;1.20;;;;;;;14.59;100.00;100841.53;6567700;27;34604;-83
